createdAt,value
2019-05-17T00:01:04.353Z,11.80
2019-05-17T00:03:32.209Z,12.80
2019-05-17T00:05:59.973Z,11.68
2019-05-17T00:08:33.917Z,11.53
2019-05-17T00:10:58.073Z,12.05
2019-05-17T00:13:26.851Z,11.10
2019-05-17T00:15:56.601Z,11.43
2019-05-17T00:18:26.426Z,11.75
2019-05-17T00:20:53.954Z,11.40
2019-05-17T00:23:21.730Z,10.88
2019-05-17T00:25:49.432Z,12.15
2019-05-17T00:28:17.206Z,11.55
2019-05-17T00:30:46.453Z,11.53
2019-05-17T00:33:16.769Z,12.10
2019-05-17T00:35:44.034Z,11.97
2019-05-17T00:38:11.822Z,12.00
2019-05-17T00:40:39.519Z,12.40
2019-05-17T00:43:07.461Z,12.58
2019-05-17T00:45:37.377Z,12.20
2019-05-17T00:48:07.774Z,13.28
2019-05-17T00:50:37.810Z,12.82
2019-05-17T00:53:07.204Z,12.50
2019-05-17T00:55:36.285Z,13.08
2019-05-17T00:58:06.439Z,12.73
2019-05-17T01:00:37.244Z,13.10
2019-05-17T01:03:03.878Z,12.90
2019-05-17T01:05:31.804Z,13.13
2019-05-17T01:07:59.492Z,12.65
2019-05-17T01:10:27.408Z,12.98
2019-05-17T01:12:57.397Z,13.08
2019-05-17T01:15:27.159Z,12.70
2019-05-17T01:17:56.228Z,12.65
2019-05-17T01:20:23.997Z,12.13
2019-05-17T01:22:51.692Z,13.25
2019-05-17T01:25:19.565Z,13.00
2019-05-17T01:27:47.568Z,12.50
2019-05-17T01:30:17.492Z,13.32
2019-05-17T01:32:46.416Z,13.10
2019-05-17T01:35:16.716Z,13.80
2019-05-17T01:37:44.233Z,13.30
2019-05-17T01:40:12.213Z,14.40
2019-05-17T01:42:40.898Z,14.45
2019-05-17T01:45:09.166Z,14.87
2019-05-17T01:47:37.173Z,15.83
2019-05-17T01:50:06.756Z,15.38
2019-05-17T01:52:37.038Z,15.15
2019-05-17T01:55:06.604Z,14.68
2019-05-17T01:57:36.904Z,15.53
2019-05-17T02:00:06.434Z,15.72
2019-05-17T02:02:39.191Z,15.83
2019-05-17T02:05:08.784Z,16.12
2019-05-17T02:07:37.300Z,16.97
2019-05-17T02:10:07.477Z,14.55
2019-05-17T02:12:37.190Z,15.90
2019-05-17T02:15:06.915Z,17.40
2019-05-17T02:17:37.297Z,15.35
2019-05-17T02:20:06.436Z,15.58
2019-05-17T02:22:36.690Z,15.45
2019-05-17T02:25:07.147Z,16.57
2019-05-17T02:27:41.026Z,14.30
2019-05-17T02:30:07.335Z,15.45
2019-05-17T02:32:37.641Z,16.00
2019-05-17T02:35:05.758Z,16.65
2019-05-17T02:37:33.852Z,16.97
2019-05-17T02:40:04.776Z,16.20
2019-05-17T02:42:33.484Z,17.05
2019-05-17T02:45:03.260Z,16.70
2019-05-17T02:47:33.624Z,16.87
2019-05-17T02:50:05.162Z,16.93
2019-05-17T02:52:32.911Z,18.02
2019-05-17T02:55:04.011Z,16.90
2019-05-17T02:57:34.546Z,16.12
2019-05-17T03:00:04.279Z,15.15
2019-05-17T03:02:34.057Z,16.90
2019-05-17T03:05:03.915Z,16.35
2019-05-17T03:07:33.659Z,17.85
2019-05-17T03:10:13.601Z,16.80
2019-05-17T03:12:33.117Z,18.25
2019-05-17T03:15:04.125Z,17.45
2019-05-17T03:17:33.761Z,17.20
2019-05-17T03:20:03.966Z,17.82
2019-05-17T03:22:33.153Z,18.75
2019-05-17T03:25:03.373Z,16.73
2019-05-17T03:27:33.486Z,16.42
2019-05-17T03:30:04.063Z,17.15
2019-05-17T03:32:35.961Z,17.40
2019-05-17T03:35:06.934Z,17.37
2019-05-17T03:37:37.467Z,17.00
2019-05-17T03:40:22.910Z,17.32
2019-05-17T03:42:33.350Z,16.52
2019-05-17T03:45:02.883Z,17.45
2019-05-17T03:47:33.408Z,18.20
2019-05-17T03:50:03.071Z,16.35
2019-05-17T03:52:33.289Z,17.45
2019-05-17T03:55:04.062Z,16.55
2019-05-17T03:57:32.477Z,18.70
2019-05-17T04:00:03.861Z,17.25
2019-05-17T04:02:32.695Z,16.65
2019-05-17T04:05:03.954Z,16.15
2019-05-17T04:07:32.792Z,16.67
2019-05-17T04:10:04.165Z,17.02
2019-05-17T04:12:32.797Z,16.60
2019-05-17T04:15:03.130Z,16.70
2019-05-17T04:17:32.829Z,16.90
2019-05-17T04:20:03.372Z,16.30
2019-05-17T04:22:33.069Z,16.93
2019-05-17T04:25:03.067Z,16.42
2019-05-17T04:27:32.804Z,16.93
2019-05-17T04:30:03.703Z,16.80
2019-05-17T04:32:33.094Z,15.85
2019-05-17T04:35:03.709Z,14.85
2019-05-17T04:37:33.580Z,15.25
2019-05-17T04:40:03.549Z,15.00
2019-05-17T04:42:33.088Z,14.43
2019-05-17T04:45:03.681Z,14.30
2019-05-17T04:47:34.023Z,15.72
2019-05-17T04:50:03.900Z,14.70
2019-05-17T04:52:33.633Z,15.38
2019-05-17T04:55:04.100Z,14.25
2019-05-17T04:57:32.507Z,15.55
2019-05-17T05:00:04.060Z,16.80
2019-05-17T05:02:33.086Z,20.52
2019-05-17T05:05:03.307Z,18.90
2019-05-17T05:07:33.603Z,18.37
2019-05-17T05:10:03.102Z,20.70
2019-05-17T05:12:33.535Z,19.57
2019-05-17T05:15:03.547Z,20.80
2019-05-17T05:17:32.903Z,21.60
2019-05-17T05:20:02.837Z,23.85
2019-05-17T05:22:33.033Z,23.20
2019-05-17T05:25:02.169Z,22.32
2019-05-17T05:27:31.719Z,23.22
2019-05-17T05:29:59.510Z,22.93
2019-05-17T05:32:27.195Z,22.20
2019-05-17T05:34:55.011Z,21.65
2019-05-17T05:37:23.257Z,21.57
2019-05-17T05:39:54.118Z,21.12
2019-05-17T05:42:22.106Z,23.35
2019-05-17T05:44:52.120Z,25.08
2019-05-17T05:47:22.058Z,22.48
2019-05-17T05:49:49.320Z,25.27
2019-05-17T05:52:17.070Z,25.00
2019-05-17T05:54:44.750Z,24.05
2019-05-17T05:57:12.811Z,23.35
2019-05-17T05:59:42.599Z,25.10
2019-05-17T06:02:12.263Z,24.02
2019-05-17T06:04:39.730Z,24.55
2019-05-17T06:07:07.594Z,24.63
2019-05-17T06:12:23.623Z,25.60
2019-05-17T06:14:45.658Z,23.35
2019-05-17T06:17:13.432Z,24.67
2019-05-17T06:19:42.181Z,23.50
2019-05-17T06:22:12.032Z,25.23
2019-05-17T06:24:42.339Z,23.60
2019-05-17T06:27:09.631Z,23.50
2019-05-17T06:29:37.522Z,23.38
2019-05-17T06:32:05.445Z,23.85
2019-05-17T06:34:33.248Z,24.30
2019-05-17T06:37:02.302Z,23.25
2019-05-17T06:39:32.650Z,23.27
2019-05-17T06:41:59.809Z,24.18
2019-05-17T06:44:27.532Z,20.95
2019-05-17T06:46:55.256Z,22.05
2019-05-17T06:49:22.989Z,21.12
2019-05-17T06:51:51.615Z,22.00
2019-05-17T06:54:21.478Z,22.02
2019-05-17T06:56:48.957Z,20.50
2019-05-17T06:59:16.630Z,21.70
2019-05-17T07:01:44.394Z,20.62
2019-05-17T07:04:12.138Z,20.65
2019-05-17T07:06:40.607Z,20.02
2019-05-17T07:09:10.110Z,20.17
2019-05-17T07:11:39.862Z,20.45
2019-05-17T07:14:09.441Z,20.02
2019-05-17T07:16:39.483Z,19.42
2019-05-17T07:19:06.804Z,19.50
2019-05-17T07:21:34.442Z,21.30
2019-05-17T07:24:02.192Z,18.60
2019-05-17T07:26:30.294Z,20.72
2019-05-17T07:28:59.255Z,18.77
2019-05-17T07:31:29.615Z,18.17
2019-05-17T07:33:56.674Z,18.30
2019-05-17T07:36:24.438Z,19.60
2019-05-17T07:38:52.107Z,18.25
2019-05-17T07:41:20.398Z,16.07
2019-05-17T07:43:49.747Z,18.02
2019-05-17T07:46:20.474Z,19.00
2019-05-17T07:48:49.621Z,16.62
2019-05-17T07:51:19.362Z,16.27
2019-05-17T07:53:46.577Z,17.17
2019-05-17T07:56:14.334Z,16.00
2019-05-17T07:58:42.042Z,15.60
2019-05-17T08:01:10.146Z,16.55
2019-05-17T08:03:40.354Z,15.08
2019-05-17T08:06:10.333Z,15.15
2019-05-17T08:08:37.469Z,15.45
2019-05-17T08:11:05.218Z,15.45
2019-05-17T08:13:33.749Z,15.00
2019-05-17T08:16:01.817Z,14.50
2019-05-17T08:18:29.753Z,13.53
2019-05-17T08:20:59.643Z,13.50
2019-05-17T08:23:27.329Z,12.30
2019-05-17T08:25:56.303Z,13.30
2019-05-17T08:28:27.121Z,12.95
2019-05-17T08:30:53.969Z,12.70
2019-05-17T08:33:21.730Z,11.73
2019-05-17T08:35:49.574Z,10.90
2019-05-17T08:38:19.576Z,12.18
2019-05-17T08:40:46.859Z,10.58
2019-05-17T08:43:14.612Z,10.68
2019-05-17T08:45:42.230Z,11.08
2019-05-17T08:48:10.121Z,10.65
2019-05-17T08:50:39.986Z,10.58
2019-05-17T08:53:07.454Z,10.40
2019-05-17T08:55:35.141Z,10.38
2019-05-17T08:58:02.896Z,11.43
2019-05-17T09:00:31.547Z,10.63
2019-05-17T09:03:00.147Z,10.90
2019-05-17T09:05:30.087Z,10.93
2019-05-17T09:07:59.961Z,10.50
2019-05-17T09:10:29.817Z,9.08
2019-05-17T09:12:59.523Z,11.03
2019-05-17T09:15:26.612Z,10.30
2019-05-17T09:17:54.308Z,10.18
2019-05-17T09:20:21.961Z,9.60
2019-05-17T09:22:51.059Z,9.23
2019-05-17T09:25:21.861Z,11.30
2019-05-17T09:27:50.114Z,9.93
2019-05-17T09:30:20.351Z,9.65
2019-05-17T09:32:50.365Z,10.13
2019-05-17T09:35:20.562Z,9.20
2019-05-17T09:37:49.893Z,10.00
2019-05-17T09:40:19.840Z,9.95
2019-05-17T09:42:49.748Z,8.83
2019-05-17T09:45:19.934Z,10.48
2019-05-17T09:47:47.083Z,9.20
2019-05-17T09:50:15.053Z,10.63
2019-05-17T09:52:43.051Z,10.20
2019-05-17T09:55:11.023Z,9.78
2019-05-17T09:57:40.782Z,10.05
2019-05-17T10:00:09.843Z,9.33
2019-05-17T10:02:40.149Z,9.18
2019-05-17T10:05:10.500Z,9.50
2019-05-17T10:07:40.321Z,9.63
2019-05-17T10:10:10.116Z,10.30
2019-05-17T10:12:40.053Z,8.93
2019-05-17T10:15:10.091Z,8.15
2019-05-17T10:17:38.003Z,9.68
2019-05-17T10:20:06.106Z,8.73
2019-05-17T10:22:34.114Z,10.20
2019-05-17T10:25:01.909Z,8.58
2019-05-17T10:27:31.197Z,8.73
2019-05-17T10:29:59.454Z,8.80
2019-05-17T10:32:27.383Z,8.18
2019-05-17T10:34:55.182Z,9.30
2019-05-17T10:37:22.961Z,8.65
2019-05-17T10:39:50.647Z,9.00
2019-05-17T10:42:20.747Z,7.70
2019-05-17T10:44:51.344Z,7.95
2019-05-17T10:47:19.553Z,9.00
2019-05-17T10:49:49.515Z,8.65
2019-05-17T10:52:17.072Z,9.80
2019-05-17T10:54:44.787Z,9.75
2019-05-17T10:57:12.737Z,9.85
2019-05-17T10:59:40.560Z,7.70
2019-05-17T11:02:09.983Z,8.15
2019-05-17T11:04:40.003Z,8.68
2019-05-17T11:07:10.273Z,9.63
2019-05-17T11:09:39.864Z,8.43
2019-05-17T11:12:06.783Z,8.33
2019-05-17T11:14:48.968Z,9.15
2019-05-17T11:17:29.103Z,8.70
2019-05-17T11:19:56.909Z,8.80
2019-05-17T11:22:24.759Z,7.95
2019-05-17T11:24:52.539Z,8.00
2019-05-17T11:27:20.309Z,7.00
2019-05-17T11:29:48.036Z,6.47
2019-05-17T11:32:15.948Z,7.80
2019-05-17T11:34:43.785Z,8.30
2019-05-17T11:37:11.673Z,7.55
2019-05-17T11:39:42.203Z,7.30
2019-05-17T11:42:12.060Z,8.50
2019-05-17T11:44:39.767Z,7.47
2019-05-17T11:47:09.507Z,8.60
2019-05-17T11:49:40.125Z,7.27
2019-05-17T11:52:08.013Z,7.60
2019-05-17T11:55:24.256Z,8.00
2019-05-17T11:57:43.341Z,7.00
2019-05-17T12:00:11.760Z,6.63
2019-05-17T12:02:41.146Z,5.73
2019-05-17T12:05:19.983Z,6.17
2019-05-17T12:07:48.550Z,6.80
2019-05-17T12:10:16.280Z,6.90
2019-05-17T12:12:44.337Z,6.50
2019-05-17T12:15:12.538Z,5.70
2019-05-17T12:17:40.681Z,6.70
2019-05-17T12:20:08.495Z,6.27
2019-05-17T12:22:36.702Z,7.00
2019-05-17T12:25:05.070Z,6.10
2019-05-17T12:27:33.626Z,6.17
2019-05-17T12:30:01.421Z,6.20
2019-05-17T12:32:30.771Z,5.40
2019-05-17T12:34:58.589Z,6.40
2019-05-17T12:37:26.362Z,6.60
2019-05-17T12:39:54.237Z,6.13
2019-05-17T12:42:22.063Z,5.90
2019-05-17T12:44:49.927Z,5.30
2019-05-17T12:47:17.770Z,5.80
2019-05-17T12:49:45.654Z,5.50
2019-05-17T12:52:13.420Z,5.13
2019-05-17T12:54:41.439Z,4.23
2019-05-17T12:57:09.189Z,5.23
2019-05-17T12:59:36.974Z,8.93
2019-05-17T13:02:04.756Z,5.63
2019-05-17T13:04:32.532Z,8.13
2019-05-17T13:07:00.368Z,5.33
2019-05-17T13:09:28.167Z,4.40
2019-05-17T13:11:55.971Z,4.97
2019-05-17T13:14:23.934Z,5.20
2019-05-17T13:16:51.933Z,5.37
2019-05-17T13:19:19.858Z,4.30
2019-05-17T13:21:47.710Z,5.40
2019-05-17T13:24:15.561Z,5.03
2019-05-17T13:26:43.481Z,5.70
2019-05-17T13:29:11.320Z,4.60
2019-05-17T13:31:39.252Z,5.73
2019-05-17T13:34:07.007Z,4.80
2019-05-17T13:36:34.735Z,4.63
2019-05-17T13:39:04.466Z,4.23
2019-05-17T13:41:32.599Z,4.60
2019-05-17T13:44:00.404Z,5.23
2019-05-17T13:46:33.098Z,4.53
2019-05-17T13:48:57.882Z,5.67
2019-05-17T13:51:25.695Z,5.00
2019-05-17T13:53:53.822Z,5.20
2019-05-17T13:56:21.557Z,4.50
2019-05-17T13:58:49.347Z,4.93
2019-05-17T14:01:17.159Z,5.03
2019-05-17T14:03:45.024Z,4.90
2019-05-17T14:06:12.864Z,4.20
2019-05-17T14:08:40.704Z,5.10
2019-05-17T14:11:08.519Z,4.50
2019-05-17T14:13:36.423Z,4.40
2019-05-17T14:16:04.291Z,4.03
2019-05-17T14:18:32.357Z,4.60
2019-05-17T14:21:00.203Z,4.27
2019-05-17T14:23:27.911Z,4.15
2019-05-17T14:25:55.775Z,4.80
2019-05-17T14:28:23.643Z,4.00
2019-05-17T14:30:51.809Z,4.80
2019-05-17T14:33:19.717Z,3.80
2019-05-17T14:35:47.470Z,4.10
2019-05-17T14:38:15.387Z,4.00
2019-05-17T14:41:05.523Z,5.45
2019-05-17T14:43:13.487Z,4.37
2019-05-17T14:45:41.227Z,4.50
2019-05-17T14:48:09.024Z,3.60
2019-05-17T14:50:36.884Z,4.20
2019-05-17T14:53:04.793Z,3.67
2019-05-17T14:55:32.514Z,3.83
2019-05-17T14:58:00.295Z,3.50
2019-05-17T15:00:28.203Z,3.45
2019-05-17T15:02:55.973Z,3.60
2019-05-17T15:05:24.487Z,3.95
2019-05-17T15:07:52.431Z,3.40
2019-05-17T15:10:20.177Z,3.58
2019-05-17T15:12:47.993Z,3.43
2019-05-17T15:15:25.863Z,3.40
2019-05-17T15:17:45.959Z,5.83
2019-05-17T15:20:13.681Z,2.22
2019-05-17T15:22:41.430Z,1.95
2019-05-17T15:25:09.546Z,1.77
2019-05-17T15:27:37.816Z,1.60
2019-05-17T15:30:05.918Z,3.15
2019-05-17T15:32:33.915Z,3.40
2019-05-17T15:35:01.587Z,3.77
2019-05-17T15:37:30.903Z,4.62
2019-05-17T15:40:05.508Z,4.12
2019-05-17T15:42:43.674Z,3.75
2019-05-17T15:45:05.666Z,3.75
2019-05-17T15:47:33.601Z,4.55
2019-05-17T15:50:01.409Z,3.70
2019-05-17T15:52:30.954Z,4.35
2019-05-17T15:54:58.854Z,3.80
2019-05-17T15:57:26.564Z,3.80
2019-05-17T15:59:54.378Z,3.50
2019-05-17T16:02:22.091Z,3.27
2019-05-17T16:04:49.874Z,3.17
2019-05-17T16:07:17.770Z,3.40
2019-05-17T16:09:45.551Z,3.30
2019-05-17T16:12:13.266Z,3.27
2019-05-17T16:14:41.045Z,3.12
2019-05-17T16:17:08.898Z,3.17
2019-05-17T16:19:36.681Z,3.22
2019-05-17T16:22:04.551Z,3.62
2019-05-17T16:24:32.555Z,4.05
2019-05-17T16:27:00.270Z,3.92
2019-05-17T16:29:28.337Z,4.20
2019-05-17T16:31:56.067Z,4.67
2019-05-17T16:34:23.876Z,5.00
2019-05-17T16:36:51.607Z,4.25
2019-05-17T16:39:19.384Z,4.15
2019-05-17T16:41:47.105Z,4.25
2019-05-17T16:44:14.898Z,4.25
2019-05-17T16:46:44.460Z,4.00
2019-05-17T16:49:12.208Z,4.10
2019-05-17T16:51:40.031Z,4.35
2019-05-17T16:54:07.991Z,4.45
2019-05-17T16:56:35.874Z,4.28
2019-05-17T16:59:03.695Z,4.05
2019-05-17T17:01:32.048Z,4.25
2019-05-17T17:03:59.885Z,3.90
2019-05-17T17:06:27.701Z,3.70
2019-05-17T17:08:55.561Z,3.77
2019-05-17T17:11:35.831Z,3.58
2019-05-17T17:14:03.875Z,3.40
2019-05-17T17:16:31.753Z,3.60
2019-05-17T17:18:59.592Z,3.50
2019-05-17T17:21:27.458Z,3.65
2019-05-17T17:24:01.305Z,3.30
2019-05-17T17:26:29.824Z,3.80
2019-05-17T17:28:57.791Z,3.80
2019-05-17T17:31:25.699Z,3.37
2019-05-17T17:33:53.644Z,3.75
2019-05-17T17:36:21.650Z,4.60
2019-05-17T17:38:49.413Z,6.58
2019-05-17T17:41:17.283Z,6.42
2019-05-17T17:43:57.546Z,5.70
2019-05-17T17:46:15.050Z,4.47
2019-05-17T17:48:45.748Z,4.40
2019-05-17T17:51:12.499Z,3.92
2019-05-17T17:53:40.373Z,4.35
2019-05-17T17:56:08.320Z,3.42
2019-05-17T17:58:36.231Z,4.33
2019-05-17T18:01:04.074Z,4.00
2019-05-17T18:03:31.966Z,4.12
2019-05-17T18:05:59.720Z,4.12
2019-05-17T18:08:27.668Z,5.00
2019-05-17T18:10:55.533Z,5.95
2019-05-17T18:13:23.420Z,5.78
2019-05-17T18:15:51.271Z,4.45
2019-05-17T18:18:19.180Z,4.28
2019-05-17T18:20:47.073Z,3.72
2019-05-17T18:23:14.883Z,3.80
2019-05-17T18:25:42.804Z,4.67
2019-05-17T18:28:10.707Z,4.05
2019-05-17T18:30:38.583Z,3.83
2019-05-17T18:33:06.579Z,4.45
2019-05-17T18:35:35.212Z,3.98
2019-05-17T18:38:03.426Z,4.08
2019-05-17T18:40:31.799Z,3.70
2019-05-17T18:42:59.981Z,3.33
2019-05-17T18:45:28.610Z,3.60
2019-05-17T18:47:56.446Z,3.65
2019-05-17T18:50:24.723Z,3.83
2019-05-17T18:52:52.779Z,4.30
2019-05-17T18:55:20.793Z,4.65
2019-05-17T18:57:48.702Z,4.40
2019-05-17T19:00:16.980Z,4.53
2019-05-17T19:02:45.036Z,4.80
2019-05-17T19:05:14.460Z,4.72
2019-05-17T19:07:42.480Z,4.20
2019-05-17T19:10:10.615Z,4.87
2019-05-17T19:12:38.986Z,4.45
2019-05-17T19:15:07.479Z,4.58
2019-05-17T19:17:35.999Z,3.70
2019-05-17T19:20:04.359Z,4.03
2019-05-17T19:22:33.060Z,4.95
2019-05-17T19:25:01.139Z,5.45
2019-05-17T19:27:30.469Z,5.95
2019-05-17T19:29:58.340Z,5.80
2019-05-17T19:32:26.052Z,4.30
2019-05-17T19:34:53.870Z,5.30
2019-05-17T19:37:21.608Z,4.97
2019-05-17T19:39:49.519Z,5.03
2019-05-17T19:42:17.442Z,5.80
2019-05-17T19:44:57.935Z,5.60
2019-05-17T19:47:14.982Z,5.67
2019-05-17T19:49:42.941Z,6.05
2019-05-17T19:52:10.863Z,5.37
2019-05-17T19:54:38.654Z,5.30
2019-05-17T19:57:06.471Z,5.20
2019-05-17T19:59:34.209Z,4.97
2019-05-17T20:02:02.214Z,5.03
2019-05-17T20:04:30.041Z,4.72
2019-05-17T20:06:57.931Z,5.60
2019-05-17T20:09:25.679Z,4.95
2019-05-17T20:11:53.578Z,5.10
2019-05-17T20:14:21.317Z,6.05
2019-05-17T20:16:49.129Z,5.37
2019-05-17T20:19:16.861Z,5.00
2019-05-17T20:21:44.780Z,4.85
2019-05-17T20:24:13.326Z,4.03
2019-05-17T20:26:41.319Z,4.25
2019-05-17T20:29:10.829Z,4.12
2019-05-17T20:31:38.506Z,4.62
2019-05-17T20:34:06.372Z,3.90
2019-05-17T20:36:34.144Z,4.92
2019-05-17T20:39:01.875Z,4.17
2019-05-17T20:41:31.260Z,4.10
2019-05-17T20:43:59.112Z,4.55
2019-05-17T20:46:27.092Z,4.42
2019-05-17T20:48:56.821Z,4.70
2019-05-17T20:51:24.704Z,4.47
2019-05-17T20:53:52.511Z,4.87
2019-05-17T20:56:32.348Z,5.15
2019-05-17T20:58:49.950Z,4.05
2019-05-17T21:01:17.674Z,4.50
2019-05-17T21:03:45.490Z,4.87
2019-05-17T21:06:13.286Z,4.60
2019-05-17T21:08:46.051Z,5.17
2019-05-17T21:11:11.704Z,4.92
2019-05-17T21:13:39.962Z,4.90
2019-05-17T21:16:07.917Z,4.90
2019-05-17T21:18:35.816Z,4.28
2019-05-17T21:21:03.533Z,4.50
2019-05-17T21:23:31.386Z,5.05
2019-05-17T21:25:59.470Z,4.80
2019-05-17T21:28:27.594Z,5.03
2019-05-17T21:30:55.339Z,5.60
2019-05-17T21:33:23.125Z,5.35
2019-05-17T21:35:50.821Z,4.67
2019-05-17T21:38:18.723Z,4.50
2019-05-17T21:40:46.439Z,4.30
2019-05-17T21:43:14.279Z,4.30
2019-05-17T21:45:41.986Z,4.60
2019-05-17T21:48:10.538Z,4.37
2019-05-17T21:50:38.382Z,4.35
2019-05-17T21:53:06.200Z,4.22
2019-05-17T21:55:34.024Z,4.50
2019-05-17T21:58:01.733Z,4.20
2019-05-17T22:01:08.972Z,4.10
2019-05-17T22:03:38.370Z,4.22
2019-05-17T22:06:06.279Z,3.85
2019-05-17T22:08:34.622Z,4.37
2019-05-17T22:11:02.300Z,3.95
2019-05-17T22:13:30.302Z,4.08
2019-05-17T22:15:58.188Z,3.90
2019-05-17T22:18:26.365Z,4.12
2019-05-17T22:20:54.262Z,3.85
2019-05-17T22:23:21.978Z,4.60
2019-05-17T22:25:49.710Z,4.60
2019-05-17T22:28:17.529Z,4.40
2019-05-17T22:30:45.421Z,4.55
2019-05-17T22:33:13.046Z,4.60
2019-05-17T22:35:40.803Z,4.50
2019-05-17T22:38:08.526Z,4.80
2019-05-17T22:40:36.366Z,4.05
2019-05-17T22:43:04.097Z,3.80
2019-05-17T22:45:31.863Z,4.33
2019-05-17T22:47:59.557Z,4.20
2019-05-17T22:50:27.334Z,4.50
2019-05-17T22:52:55.045Z,4.30
2019-05-17T22:55:22.842Z,4.08
2019-05-17T22:57:50.743Z,4.00
2019-05-17T23:00:18.590Z,4.22
2019-05-17T23:02:46.494Z,5.20
2019-05-17T23:05:14.382Z,4.65
2019-05-17T23:07:42.242Z,4.47
2019-05-17T23:10:10.225Z,5.92
2019-05-17T23:12:38.177Z,5.30
2019-05-17T23:15:05.870Z,6.92
2019-05-17T23:17:34.365Z,5.80
2019-05-17T23:20:04.660Z,6.40
2019-05-17T23:22:32.740Z,6.72
2019-05-17T23:25:00.394Z,6.17
2019-05-17T23:27:28.243Z,6.78
2019-05-17T23:29:55.938Z,7.25
2019-05-17T23:32:23.911Z,7.12
2019-05-17T23:34:51.611Z,8.15
2019-05-17T23:37:19.370Z,7.28
2019-05-17T23:39:47.095Z,8.45
2019-05-17T23:42:14.847Z,8.40
2019-05-17T23:44:42.536Z,8.00
2019-05-17T23:47:10.310Z,8.50
2019-05-17T23:49:38.013Z,7.78
2019-05-17T23:52:05.745Z,7.62
2019-05-17T23:54:33.436Z,7.20
2019-05-17T23:57:01.204Z,6.85
2019-05-17T23:59:29.007Z,7.78
